Current | Forecast
Updated: 9:00 AM JST on May 28, 2017
Observed at Kumamoto, Japan
Temperature 68°F
Humidity 56%
Dew Point 52°F
Wind Variable at 2 mph
Pressure 29.98 in (Steady)
Conditions Clear
Visibility -
UV N/A
Clouds
Yesterday's Maximum 77°F
Yesterday's Minimum 59°F approx.
Yesterday's Cooling Degree Days 3 approx.
Sunrise5:08 AM JST
Sunset7:17 PM JST
Moon Rise7:29 AM JST
Moon Set9:49 PM JST
Moon PhaseMoon Phase
Waxing Crescent
Raw METARMETAR RJFT 280000Z VRB02KT CAVOK 20/11 Q1015


Monday
. High: 73° F.
Tuesday
. High: 77° F.
Wednesday
. High: 75° F.
Thursday
. High: 80° F.
Friday
. High: 77° F.
Saturday
. High: 78° F.
Sunday
. High: 84° F.
Monday
. High: 82° F.

Units: English | Metric

Find the Weather for any City, State or Zipcode, or Country:

U.S. State List | Severe Weather | Tropical Storms | Ski Conditions
United States | Canada | Central America | South America | Asia | Europe | Australia | Africa | Islands

Weather Underground

© Copyright 2017
The Weather Company, LLC